Time;durP1;ratioP1;P1;durP2;ratioP2;P2;SDS_P1;SDS_P2;PMS_P1;PMS_P2;Temp;Humidity;BMP_temperature;BMP_pressure;BME280_temperature;BME280_humidity;BME280_pressure;Samples;Min_cycle;Max_cycle;Signal;HPM_P1;HPM_P2
2023/04/11 00:01:55;;;;;;;2.70;1.80;;;;;;;10.71;100.00;98514.56;5054511;28;20196;-79
2023/04/11 00:04:24;;;;;;;3.23;1.63;;;;;;;10.86;100.00;98523.16;5070157;28;20203;-79
2023/04/11 00:06:54;;;;;;;1.97;1.30;;;;;;;10.78;100.00;98512.28;5066854;28;20204;-79
2023/04/11 00:09:22;;;;;;;2.90;1.53;;;;;;;10.76;100.00;98503.63;5074051;28;20234;-79
2023/04/11 00:11:50;;;;;;;2.17;1.53;;;;;;;10.73;100.00;98506.50;5070197;28;20259;-79
2023/04/11 00:14:20;;;;;;;1.83;1.40;;;;;;;10.43;100.00;98499.03;5069411;28;20199;-79
2023/04/11 00:16:52;;;;;;;2.40;1.20;;;;;;;10.29;100.00;98502.69;5072800;28;20200;-79
2023/04/11 00:19:22;;;;;;;1.90;1.27;;;;;;;10.48;100.00;98516.25;5065095;28;20200;-79
2023/04/11 00:21:50;;;;;;;1.70;1.43;;;;;;;10.18;100.00;98521.97;5067416;28;20243;-79
2023/04/11 00:24:20;;;;;;;2.00;1.40;;;;;;;10.35;100.00;98515.47;5061343;28;20207;-79
2023/04/11 00:26:50;;;;;;;2.63;1.57;;;;;;;10.67;100.00;98520.19;5069270;28;20275;-79
2023/04/11 00:29:18;;;;;;;3.00;1.60;;;;;;;10.62;100.00;98517.91;5070706;28;20200;-79
2023/04/11 00:31:46;;;;;;;1.93;1.70;;;;;;;10.58;100.00;98517.25;5072386;28;20263;-78
2023/04/11 00:34:15;;;;;;;2.73;1.60;;;;;;;10.15;100.00;98535.44;5073425;28;20719;-79
2023/04/11 00:36:43;;;;;;;1.60;1.50;;;;;;;9.71;100.00;98538.59;5070527;28;20192;-78
2023/04/11 00:39:12;;;;;;;2.90;1.80;;;;;;;9.73;100.00;98520.81;5068898;28;20203;-79
2023/04/11 00:41:42;;;;;;;3.17;1.60;;;;;;;9.78;100.00;98523.16;5069732;28;20196;-78
2023/04/11 00:44:12;;;;;;;1.60;1.50;;;;;;;9.68;100.00;98538.81;5073391;28;20196;-79
2023/04/11 00:46:42;;;;;;;1.83;1.57;;;;;;;9.58;100.00;98548.34;5068189;28;20216;-78
2023/04/11 00:49:13;;;;;;;2.17;1.30;;;;;;;9.60;100.00;98560.50;5073253;28;20199;-79
2023/04/11 00:51:42;;;;;;;2.00;1.53;;;;;;;9.58;100.00;98543.06;5070625;28;20196;-79
2023/04/11 00:54:10;;;;;;;3.50;1.77;;;;;;;9.59;100.00;98523.59;5069400;28;20201;-78
2023/04/11 00:56:39;;;;;;;1.77;1.00;;;;;;;9.43;100.00;98547.59;5073536;28;20228;-78
2023/04/11 00:59:09;;;;;;;2.93;1.10;;;;;;;9.43;100.00;98548.44;5070739;28;20193;-79
2023/04/11 01:01:37;;;;;;;2.20;0.97;;;;;;;9.47;100.00;98551.75;5069250;28;20192;-78
2023/04/11 01:04:06;;;;;;;1.83;0.83;;;;;;;9.49;100.00;98554.28;5073101;28;20311;-78
2023/04/11 01:06:35;;;;;;;2.00;1.13;;;;;;;9.42;100.00;98565.25;5068668;28;20299;-78
2023/04/11 01:09:03;;;;;;;1.63;0.90;;;;;;;9.44;100.00;98562.50;5062627;28;20259;-78
2023/04/11 01:11:32;;;;;;;2.13;1.00;;;;;;;9.49;100.00;98554.28;5022229;28;20228;-79
2023/04/11 01:14:01;;;;;;;1.70;0.87;;;;;;;9.50;100.00;98553.31;5072950;28;20208;-79
2023/04/11 01:16:30;;;;;;;1.90;1.00;;;;;;;9.44;100.00;98552.78;5071907;28;20200;-79
2023/04/11 01:18:59;;;;;;;0.90;0.73;;;;;;;9.46;100.00;98545.59;5073211;28;20251;-78
2023/04/11 01:21:28;;;;;;;1.37;0.90;;;;;;;9.48;100.00;98540.22;5072899;28;20200;-78
2023/04/11 01:24:02;;;;;;;2.67;1.10;;;;;;;9.35;100.00;98526.13;5069445;28;20243;-78
2023/04/11 01:26:31;;;;;;;2.17;1.20;;;;;;;9.33;100.00;98520.97;5069893;28;20215;-79
2023/04/11 01:28:59;;;;;;;1.23;0.90;;;;;;;9.22;100.00;98526.13;5069883;28;20227;-79
2023/04/11 01:31:27;;;;;;;1.53;0.93;;;;;;;9.30;100.00;98544.97;5067328;28;20204;-78
2023/04/11 01:33:55;;;;;;;0.90;0.80;;;;;;;9.26;100.00;98550.53;5062314;28;20200;-78
2023/04/11 01:36:23;;;;;;;2.23;0.80;;;;;;;9.25;100.00;98535.66;5067771;28;20193;-78
2023/04/11 01:38:51;;;;;;;2.30;0.90;;;;;;;9.19;100.00;98526.38;5065038;28;20210;-78
2023/04/11 01:41:22;;;;;;;1.50;0.90;;;;;;;9.22;100.00;98512.09;5072491;28;20196;-79
2023/04/11 01:43:50;;;;;;;2.90;0.90;;;;;;;9.22;100.00;98507.66;5068659;28;20242;-79
2023/04/11 01:46:19;;;;;;;1.70;0.87;;;;;;;9.44;100.00;98504.34;5065700;28;20216;-78
2023/04/11 01:48:49;;;;;;;1.37;0.93;;;;;;;9.58;100.00;98495.47;5072459;28;20200;-78
2023/04/11 01:51:18;;;;;;;1.37;0.97;;;;;;;9.70;100.00;98513.94;5066897;28;20208;-78
2023/04/11 01:53:46;;;;;;;1.80;0.90;;;;;;;9.84;100.00;98509.47;5079244;28;20192;-79
2023/04/11 01:56:15;;;;;;;1.97;1.10;;;;;;;9.89;100.00;98512.66;5080221;28;20235;-79
2023/04/11 01:58:44;;;;;;;2.03;0.87;;;;;;;9.96;100.00;98512.09;5064809;28;20204;-79
2023/04/11 02:01:13;;;;;;;2.13;1.20;;;;;;;9.92;100.00;98520.34;5071111;28;20204;-79
2023/04/11 02:07:06;;;;;;;2.20;1.07;;;;;;;9.85;100.00;98492.66;5063458;28;20223;-79
2023/04/11 02:09:35;;;;;;;2.57;1.10;;;;;;;9.86;100.00;98511.06;5052462;28;20236;-78
2023/04/11 02:12:03;;;;;;;2.30;1.00;;;;;;;9.83;100.00;98527.13;5049554;28;20236;-79
2023/04/11 02:14:42;;;;;;;1.50;0.93;;;;;;;9.83;100.00;98526.28;5049301;28;20225;-79
2023/04/11 02:17:10;;;;;;;1.67;1.00;;;;;;;9.85;100.00;98525.25;5054767;28;20193;-79
2023/04/11 02:19:39;;;;;;;2.50;1.13;;;;;;;9.80;100.00;98535.28;5056331;28;20200;-78
2023/04/11 02:22:08;;;;;;;1.60;1.00;;;;;;;9.82;100.00;98529.91;5046611;28;20671;-78
2023/04/11 02:24:37;;;;;;;1.00;0.70;;;;;;;9.84;100.00;98533.28;5053330;28;20256;-78
2023/04/11 02:27:05;;;;;;;2.00;0.90;;;;;;;9.61;100.00;98541.03;5055609;28;20232;-79
2023/04/11 02:29:34;;;;;;;5.07;0.90;;;;;;;9.59;100.00;98542.09;5056108;28;20201;-78
2023/04/11 02:32:04;;;;;;;1.37;0.80;;;;;;;9.66;100.00;98540.72;5050427;28;20243;-79
2023/04/11 02:34:32;;;;;;;2.07;1.00;;;;;;;9.66;100.00;98538.09;5055978;28;20201;-79
2023/04/11 02:37:00;;;;;;;2.20;0.80;;;;;;;9.74;100.00;98523.34;5053192;28;20197;-79
2023/04/11 02:39:30;;;;;;;4.27;0.90;;;;;;;9.56;100.00;98529.09;5051150;28;20193;-78
2023/04/11 02:41:58;;;;;;;1.57;0.93;;;;;;;9.50;100.00;98535.66;5055770;28;20193;-78
2023/04/11 02:44:28;;;;;;;1.07;0.87;;;;;;;9.59;100.00;98545.59;5048710;28;20197;-78
2023/04/11 02:46:56;;;;;;;3.17;1.10;;;;;;;9.64;100.00;98547.91;5049200;28;20699;-79
2023/04/11 02:49:26;;;;;;;1.27;0.80;;;;;;;9.62;100.00;98503.06;5048243;28;20197;-79
2023/04/11 02:51:54;;;;;;;1.63;0.87;;;;;;;9.71;100.00;98512.16;5049397;28;20205;-79
2023/04/11 02:54:22;;;;;;;1.83;1.00;;;;;;;9.68;100.00;98539.66;5055335;28;20190;-79
2023/04/11 02:56:52;;;;;;;2.23;1.20;;;;;;;9.55;100.00;98537.97;5055189;28;20215;-78
2023/04/11 02:59:20;;;;;;;1.83;0.97;;;;;;;9.55;100.00;98520.31;5047845;28;20201;-78
2023/04/11 03:01:48;;;;;;;2.77;1.33;;;;;;;9.48;100.00;98526.16;5053966;28;20197;-78
2023/04/11 03:04:16;;;;;;;3.27;1.00;;;;;;;9.59;100.00;98545.59;5052480;28;20189;-79
2023/04/11 03:06:46;;;;;;;3.37;1.00;;;;;;;9.48;100.00;98548.13;5055222;28;20221;-79
2023/04/11 03:09:14;;;;;;;2.00;0.87;;;;;;;9.39;100.00;98544.34;5049681;28;20660;-78
2023/04/11 03:11:42;;;;;;;1.70;0.90;;;;;;;9.38;100.00;98532.06;5050585;28;20205;-78
2023/04/11 03:14:13;;;;;;;1.53;1.00;;;;;;;9.41;100.00;98509.88;5051102;28;20284;-78
2023/04/11 03:16:41;;;;;;;2.23;0.80;;;;;;;9.50;100.00;98488.06;5053558;28;20193;-78
2023/04/11 03:19:10;;;;;;;1.13;0.80;;;;;;;9.57;100.00;98509.66;5049760;28;20208;-78
2023/04/11 03:21:39;;;;;;;2.20;0.77;;;;;;;9.12;100.00;98530.38;5054877;28;20247;-78
2023/04/11 03:24:11;;;;;;;1.90;0.80;;;;;;;9.07;100.00;98535.09;5051328;28;20648;-78
2023/04/11 03:26:40;;;;;;;2.07;1.07;;;;;;;8.96;100.00;98521.78;5050545;28;20221;-78
2023/04/11 03:29:08;;;;;;;3.07;1.10;;;;;;;9.02;100.00;98529.31;5015671;28;20251;-78
2023/04/11 03:31:36;;;;;;;2.47;0.77;;;;;;;9.17;100.00;98539.69;5051089;28;20250;-78
2023/04/11 03:34:06;;;;;;;4.67;0.93;;;;;;;9.30;100.00;98531.75;5051782;28;20197;-79
2023/04/11 03:36:34;;;;;;;2.00;0.87;;;;;;;9.23;100.00;98533.13;5048040;28;20197;-78
2023/04/11 03:39:02;;;;;;;2.20;0.83;;;;;;;9.23;100.00;98525.19;5050187;28;20197;-78
2023/04/11 03:41:32;;;;;;;4.10;0.90;;;;;;;9.31;100.00;98520.22;5054953;28;20185;-78
2023/04/11 03:44:00;;;;;;;1.57;1.00;;;;;;;9.25;100.00;98515.34;5056071;28;20243;-77
2023/04/11 03:46:29;;;;;;;2.80;1.10;;;;;;;9.29;100.00;98508.06;5066643;28;20200;-79
2023/04/11 03:48:57;;;;;;;6.10;2.90;;;;;;;9.38;100.00;98520.66;5060293;28;20325;-78
2023/04/11 03:51:26;;;;;;;11.33;6.27;;;;;;;9.45;100.00;98513.97;5053463;28;20205;-78
2023/04/11 03:53:54;;;;;;;6.07;3.03;;;;;;;9.62;100.00;98508.34;5050130;28;20247;-78
2023/04/11 03:56:22;;;;;;;3.80;1.30;;;;;;;9.68;100.00;98515.03;5050500;28;20237;-78
2023/04/11 03:58:52;;;;;;;1.87;1.00;;;;;;;9.51;100.00;98512.72;5050747;28;20247;-78
2023/04/11 04:01:20;;;;;;;3.00;1.00;;;;;;;9.49;100.00;98511.97;5049607;28;20245;-78
2023/04/11 04:03:49;;;;;;;2.73;0.93;;;;;;;9.25;100.00;98510.06;5048731;28;20251;-78
2023/04/11 04:06:17;;;;;;;1.40;0.87;;;;;;;9.50;100.00;98516.31;5047567;28;20293;-78
2023/04/11 04:08:45;;;;;;;3.60;1.07;;;;;;;9.42;100.00;98519.47;5051089;28;20224;-78
2023/04/11 04:11:13;;;;;;;5.13;1.13;;;;;;;9.29;100.00;98508.06;5051275;28;20200;-78
2023/04/11 04:13:41;;;;;;;2.70;1.00;;;;;;;9.27;100.00;98504.72;5044297;28;20197;-78
2023/04/11 04:16:11;;;;;;;2.47;1.53;;;;;;;9.21;100.00;98499.84;5052671;28;20251;-78
2023/04/11 04:18:40;;;;;;;6.13;2.57;;;;;;;9.13;100.00;98497.72;5053963;28;20204;-79
2023/04/11 04:21:08;;;;;;;6.17;3.83;;;;;;;9.01;100.00;98507.31;5051161;28;20302;-78
2023/04/11 04:23:38;;;;;;;4.17;1.40;;;;;;;9.00;100.00;98520.63;5053951;28;20196;-78
2023/04/11 04:26:12;;;;;;;1.30;0.90;;;;;;;8.87;100.00;98536.44;5050899;28;20197;-78
2023/04/11 04:28:44;;;;;;;2.57;0.90;;;;;;;8.59;100.00;98551.50;5053765;28;20222;-78
2023/04/11 04:31:24;;;;;;;2.27;1.10;;;;;;;8.51;100.00;98552.94;5049777;28;20196;-78
2023/04/11 04:33:52;;;;;;;2.17;1.20;;;;;;;8.56;100.00;98556.13;5053811;28;20228;-78
2023/04/11 04:36:20;;;;;;;3.63;1.30;;;;;;;8.49;100.00;98555.69;5053583;28;20211;-78
2023/04/11 04:38:49;;;;;;;2.33;1.10;;;;;;;8.43;100.00;98556.09;5052859;28;20197;-78
2023/04/11 04:41:21;;;;;;;1.37;0.90;;;;;;;8.57;100.00;98566.56;5053484;28;20197;-78
2023/04/11 04:43:49;;;;;;;3.87;1.00;;;;;;;8.62;100.00;98571.56;5050556;28;20675;-78
2023/04/11 04:46:19;;;;;;;3.83;1.10;;;;;;;8.83;100.00;98569.31;5049316;28;20201;-78
2023/04/11 04:48:47;;;;;;;4.37;1.20;;;;;;;8.63;100.00;98565.34;5011687;28;20210;-79
2023/04/11 04:51:15;;;;;;;2.27;0.93;;;;;;;8.71;100.00;98572.75;5004102;28;20202;-79
2023/04/11 04:53:45;;;;;;;3.10;0.90;;;;;;;8.71;100.00;98567.47;5011666;28;20202;-77
2023/04/11 04:56:13;;;;;;;6.83;1.20;;;;;;;8.65;100.00;98565.22;5010340;28;20214;-77
2023/04/11 04:58:41;;;;;;;3.67;1.00;;;;;;;8.56;100.00;98564.03;5011692;28;20362;-77
2023/04/11 05:01:10;;;;;;;1.97;1.00;;;;;;;8.54;100.00;98571.22;5010377;28;20201;-77
2023/04/11 05:03:40;;;;;;;2.97;1.17;;;;;;;8.64;100.00;98577.59;5008440;28;20269;-77
2023/04/11 05:06:09;;;;;;;8.73;1.20;;;;;;;8.60;100.00;98581.38;5014619;28;20202;-77
2023/04/11 05:08:37;;;;;;;3.87;0.90;;;;;;;8.56;100.00;98575.44;5029779;28;20688;-77
2023/04/11 05:11:05;;;;;;;6.13;1.20;;;;;;;8.53;100.00;98572.16;5028296;28;20309;-77
2023/04/11 05:13:34;;;;;;;3.20;1.17;;;;;;;8.54;100.00;98579.97;5033138;28;20629;-78
2023/04/11 05:16:03;;;;;;;2.77;1.20;;;;;;;8.55;100.00;98583.47;5032755;28;20197;-77
2023/04/11 05:18:31;;;;;;;5.57;1.57;;;;;;;8.51;100.00;98588.09;5048359;28;20213;-77
2023/04/11 05:21:01;;;;;;;2.37;1.00;;;;;;;8.52;100.00;98583.66;5053494;28;20197;-77
2023/04/11 05:23:30;;;;;;;3.00;0.80;;;;;;;8.57;100.00;98595.59;5052938;28;20189;-77
2023/04/11 05:25:58;;;;;;;4.63;1.20;;;;;;;8.60;100.00;98590.16;5051153;28;20201;-77
2023/04/11 05:28:26;;;;;;;3.60;1.20;;;;;;;8.64;100.00;98611.06;5052954;28;20220;-77
2023/04/11 05:30:54;;;;;;;2.37;1.10;;;;;;;8.62;100.00;98610.31;5045246;28;20197;-77
2023/04/11 05:33:24;;;;;;;6.27;1.53;;;;;;;8.45;100.00;98601.69;5051274;28;20251;-77
2023/04/11 05:35:52;;;;;;;6.27;1.47;;;;;;;8.16;100.00;98603.50;5052943;28;20200;-77
2023/04/11 05:38:22;;;;;;;5.57;1.40;;;;;;;8.21;100.00;98592.69;5049937;28;20280;-77
2023/04/11 05:40:50;;;;;;;3.90;1.20;;;;;;;8.15;100.00;98601.81;5047600;28;20205;-77
2023/04/11 05:43:18;;;;;;;5.87;1.37;;;;;;;8.14;100.00;98594.84;5049924;28;20247;-77
2023/04/11 05:45:47;;;;;;;7.57;1.60;;;;;;;8.21;100.00;98601.44;5043837;28;20216;-77
2023/04/11 05:48:18;;;;;;;4.93;1.70;;;;;;;7.93;100.00;98601.47;5048506;28;20216;-77
2023/04/11 05:50:46;;;;;;;9.60;1.80;;;;;;;7.92;100.00;98591.88;5047025;28;20207;-77
2023/04/11 05:53:15;;;;;;;4.07;1.50;;;;;;;8.01;100.00;98593.94;5072283;28;20195;-77
2023/04/11 05:55:45;;;;;;;3.93;1.60;;;;;;;8.09;100.00;98603.97;5076819;28;20250;-77
2023/04/11 05:58:13;;;;;;;5.10;1.70;;;;;;;7.89;100.00;98600.81;5072472;28;20321;-77
2023/04/11 06:00:42;;;;;;;5.57;1.60;;;;;;;7.97;100.00;98593.25;5076687;28;20242;-78
2023/04/11 06:03:10;;;;;;;11.73;2.50;;;;;;;7.81;100.00;98600.41;5070864;28;20219;-78
2023/04/11 06:05:39;;;;;;;7.67;1.53;;;;;;;8.00;100.00;98608.03;5076272;28;20655;-77
2023/04/11 06:08:07;;;;;;;7.77;1.80;;;;;;;8.04;100.00;98613.03;5076624;28;20216;-77
2023/04/11 06:10:35;;;;;;;6.17;1.90;;;;;;;8.03;100.00;98616.63;5071280;28;20204;-77
2023/04/11 06:13:05;;;;;;;4.97;1.70;;;;;;;8.19;100.00;98623.56;5071854;28;20237;-77
2023/04/11 06:15:34;;;;;;;4.30;1.70;;;;;;;8.24;100.00;98614.44;5076386;28;20250;-77
2023/04/11 06:18:02;;;;;;;6.87;1.67;;;;;;;8.44;100.00;98621.09;5071442;28;20275;-77
2023/04/11 06:20:30;;;;;;;7.00;1.80;;;;;;;8.48;100.00;98622.59;5076502;28;20235;-77
2023/04/11 06:23:00;;;;;;;4.13;1.50;;;;;;;8.60;100.00;98618.34;5073048;28;20200;-78
2023/04/11 06:25:28;;;;;;;10.87;2.20;;;;;;;8.55;100.00;98631.81;5070257;28;20196;-77
2023/04/11 06:27:56;;;;;;;5.53;1.50;;;;;;;8.84;100.00;98615.88;5075705;28;20260;-77
2023/04/11 06:30:26;;;;;;;6.60;2.00;;;;;;;8.80;100.00;98625.81;5071347;28;20196;-77
2023/04/11 06:32:54;;;;;;;5.10;1.60;;;;;;;8.89;100.00;98627.00;5075157;28;20204;-78
2023/04/11 06:35:23;;;;;;;7.87;2.50;;;;;;;8.67;100.00;98624.91;5013808;28;20245;-77
2023/04/11 06:37:51;;;;;;;11.33;2.10;;;;;;;8.81;100.00;98616.94;5011744;28;20203;-77
2023/04/11 06:40:20;;;;;;;7.50;1.83;;;;;;;8.87;100.00;98613.88;5013952;28;20202;-78
2023/04/11 06:42:48;;;;;;;7.27;2.00;;;;;;;8.80;100.00;98636.38;5013984;28;20237;-77
2023/04/11 06:45:18;;;;;;;5.47;1.60;;;;;;;8.90;100.00;98631.34;5011616;28;20230;-77
2023/04/11 06:47:47;;;;;;;9.70;2.17;;;;;;;8.98;100.00;98631.69;5012860;28;20195;-77
2023/04/11 06:50:16;;;;;;;7.63;1.70;;;;;;;8.85;100.00;98631.63;5007466;28;20222;-77
2023/04/11 06:52:44;;;;;;;6.43;1.90;;;;;;;8.70;100.00;98634.44;5017135;28;20208;-77
2023/04/11 06:55:14;;;;;;;6.10;1.60;;;;;;;8.79;100.00;98632.03;5072665;28;20840;-77
2023/04/11 06:57:44;;;;;;;7.90;2.03;;;;;;;8.58;100.00;98631.59;5072664;28;20200;-77
2023/04/11 07:00:13;;;;;;;7.47;1.87;;;;;;;8.84;100.00;98631.72;5075572;28;20193;-77
2023/04/11 07:02:43;;;;;;;7.37;2.00;;;;;;;8.79;100.00;98631.19;5071184;28;20243;-77
2023/04/11 07:05:15;;;;;;;6.03;2.20;;;;;;;8.84;100.00;98642.28;5072726;28;20196;-77
2023/04/11 07:07:43;;;;;;;9.00;2.43;;;;;;;9.10;100.00;98636.16;5075518;28;20196;-77
2023/04/11 07:10:11;;;;;;;9.17;1.87;;;;;;;9.13;100.00;98640.38;5072447;28;20238;-77
2023/04/11 07:12:39;;;;;;;6.83;1.63;;;;;;;9.01;100.00;98627.97;5072536;28;20192;-77
2023/04/11 07:15:09;;;;;;;6.00;1.60;;;;;;;8.87;100.00;98626.22;5075108;28;20250;-77
2023/04/11 07:17:37;;;;;;;7.37;1.63;;;;;;;9.01;100.00;98639.41;5074083;28;20192;-77
2023/04/11 07:20:08;;;;;;;6.07;1.67;;;;;;;9.30;100.00;98645.38;5067822;28;20283;-77
2023/04/11 07:22:41;;;;;;;6.50;1.67;;;;;;;9.40;100.00;98648.25;5071498;28;20279;-77
2023/04/11 07:25:10;;;;;;;9.13;2.30;;;;;;;9.02;100.00;98638.44;5075109;28;20192;-77
2023/04/11 07:27:39;;;;;;;6.40;1.40;;;;;;;9.18;100.00;98654.97;5065932;28;20227;-77
2023/04/11 07:30:08;;;;;;;10.03;1.90;;;;;;;9.38;100.00;98653.66;5068999;28;20709;-77
2023/04/11 07:32:36;;;;;;;5.87;1.90;;;;;;;9.64;100.00;98653.66;5070766;28;20200;-77
2023/04/11 07:35:05;;;;;;;7.93;1.80;;;;;;;9.73;100.00;98659.16;5071128;28;20201;-77
2023/04/11 07:37:34;;;;;;;8.00;1.70;;;;;;;9.61;100.00;98649.44;5069826;28;20200;-77
2023/04/11 07:40:10;;;;;;;8.07;1.97;;;;;;;9.75;100.00;98651.16;5066673;28;20238;-77
2023/04/11 07:42:38;;;;;;;13.50;1.90;;;;;;;9.88;100.00;98657.28;5074741;28;20192;-77
2023/04/11 07:45:07;;;;;;;7.33;2.10;;;;;;;9.79;100.00;98663.19;5067950;28;20195;-77
2023/04/11 07:47:36;;;;;;;11.87;2.63;;;;;;;9.88;100.00;98656.44;5073501;28;20197;-77
2023/04/11 07:50:05;;;;;;;11.17;2.20;;;;;;;9.52;100.00;98652.69;5071760;28;20223;-77
2023/04/11 07:52:34;;;;;;;5.87;1.80;;;;;;;9.55;100.00;98660.41;5074358;28;20192;-77
2023/04/11 07:55:04;;;;;;;5.60;1.70;;;;;;;9.62;100.00;98668.78;5063844;28;20234;-77
2023/04/11 07:57:32;;;;;;;4.93;1.50;;;;;;;9.78;100.00;98664.16;5074472;28;20227;-78
2023/04/11 08:00:00;;;;;;;6.93;1.73;;;;;;;9.95;100.00;98665.66;5071628;28;20234;-77
2023/04/11 08:02:28;;;;;;;6.23;1.83;;;;;;;10.09;100.00;98656.72;5070206;28;20213;-77
2023/04/11 08:04:57;;;;;;;8.00;2.00;;;;;;;10.31;100.00;98660.44;5070542;28;20272;-77
2023/04/11 08:07:25;;;;;;;11.13;2.00;;;;;;;10.23;100.00;98662.78;5065693;28;20200;-77
2023/04/11 08:09:54;;;;;;;6.73;2.20;;;;;;;10.24;100.00;98674.22;5067390;28;20293;-77
2023/04/11 08:12:23;;;;;;;5.37;1.87;;;;;;;10.11;100.00;98663.59;5074075;28;20230;-76
2023/04/11 08:14:51;;;;;;;7.67;2.33;;;;;;;9.95;100.00;98661.19;5066255;28;20184;-77
2023/04/11 08:17:24;;;;;;;8.00;2.17;;;;;;;9.98;100.00;98668.91;5064709;28;20207;-77
2023/04/11 08:19:56;;;;;;;5.90;2.10;;;;;;;9.98;100.00;98676.84;5071367;28;20230;-77
2023/04/11 08:22:24;;;;;;;10.47;1.97;;;;;;;9.99;100.00;98675.03;5071339;28;20185;-77
2023/04/11 08:24:52;;;;;;;6.23;1.83;;;;;;;10.10;100.00;98671.66;5073505;28;20208;-77
2023/04/11 08:27:20;;;;;;;9.23;2.10;;;;;;;10.09;100.00;98664.66;5073976;28;20246;-77
2023/04/11 08:29:50;;;;;;;10.23;1.70;;;;;;;10.09;100.00;98680.53;5073941;28;20726;-77
2023/04/11 08:32:19;;;;;;;6.57;1.80;;;;;;;9.96;100.00;98718.44;5072581;28;20197;-77
2023/04/11 08:34:48;;;;;;;7.00;1.90;;;;;;;10.01;100.00;98689.00;5073715;28;20196;-77
2023/04/11 08:37:16;;;;;;;11.07;1.93;;;;;;;10.00;100.00;98688.16;5073740;28;20200;-77
2023/04/11 08:39:44;;;;;;;5.47;2.27;;;;;;;10.08;100.00;98682.34;5073616;28;20196;-77
2023/04/11 08:42:22;;;;;;;6.53;2.00;;;;;;;10.11;100.00;98689.22;5073665;28;20192;-77
2023/04/11 08:44:55;;;;;;;6.03;1.97;;;;;;;10.08;100.00;98679.69;5073505;28;20200;-77
2023/04/11 08:47:25;;;;;;;7.30;2.03;;;;;;;10.12;100.00;98685.63;5066697;28;20188;-77
2023/04/11 08:49:55;;;;;;;8.13;1.77;;;;;;;10.15;100.00;98683.63;5067943;28;20236;-77
2023/04/11 08:52:25;;;;;;;8.10;2.40;;;;;;;10.06;100.00;98694.84;5070761;28;20199;-78
2023/04/11 08:54:55;;;;;;;6.50;1.80;;;;;;;10.29;100.00;98683.53;5070346;28;20200;-77
2023/04/11 08:57:30;;;;;;;4.27;1.60;;;;;;;10.59;100.00;98683.13;5070187;28;20501;-77
2023/04/11 09:00:10;;;;;;;8.00;2.00;;;;;;;10.53;100.00;98685.41;5070119;28;20191;-77
2023/04/11 09:02:55;;;;;;;8.47;2.33;;;;;;;10.48;100.00;98680.41;5071899;28;20223;-77
2023/04/11 09:05:31;;;;;;;13.83;2.40;;;;;;;10.76;100.00;98681.94;5073180;28;20254;-77
2023/04/11 09:08:01;;;;;;;6.93;1.70;;;;;;;10.58;100.00;98685.91;5070102;28;20245;-77
2023/04/11 09:10:30;;;;;;;7.33;2.10;;;;;;;10.76;100.00;98687.22;5070242;28;20234;-77
2023/04/11 09:12:59;;;;;;;8.90;2.03;;;;;;;10.66;100.00;98693.31;5070413;28;20242;-81
2023/04/11 09:15:31;;;;;;;7.00;2.43;;;;;;;10.80;100.00;98691.34;5068638;28;20666;-77
2023/04/11 09:17:59;;;;;;;8.13;1.93;;;;;;;10.83;100.00;98704.38;5066909;28;20208;-78
2023/04/11 09:20:30;;;;;;;7.00;1.70;;;;;;;10.69;100.00;98717.75;5066790;28;20198;-78
2023/04/11 09:22:59;;;;;;;6.43;1.40;;;;;;;10.75;100.00;98722.63;5038762;28;20228;-77
2023/04/11 09:25:27;;;;;;;5.37;1.97;;;;;;;10.66;100.00;98722.44;5067554;28;20238;-77
2023/04/11 09:28:08;;;;;;;8.80;2.10;;;;;;;10.46;100.00;98727.34;5070265;28;20192;-78
2023/04/11 09:30:38;;;;;;;8.07;2.10;;;;;;;10.50;100.00;98714.72;5072781;28;20216;-77
2023/04/11 09:33:21;;;;;;;7.67;1.97;;;;;;;10.77;100.00;98717.22;5029565;28;20224;-77
2023/04/11 09:35:52;;;;;;;9.13;1.80;;;;;;;11.05;100.00;98711.59;5023529;28;20201;-77
2023/04/11 09:38:32;;;;;;;6.40;1.80;;;;;;;11.50;100.00;98711.81;5031098;28;20205;-77
2023/04/11 09:41:01;;;;;;;5.50;1.77;;;;;;;11.62;100.00;98712.69;5024046;28;20205;-78
2023/04/11 09:43:49;;;;;;;5.00;1.90;;;;;;;11.44;100.00;98709.63;5023071;28;20205;-77
2023/04/11 09:46:19;;;;;;;6.50;1.43;;;;;;;11.74;100.00;98703.81;5029487;28;20209;-78
2023/04/11 09:48:49;;;;;;;3.33;1.57;;;;;;;11.74;100.00;98693.19;5027003;28;20236;-78
2023/04/11 09:51:18;;;;;;;5.03;1.70;;;;;;;11.63;100.00;98683.41;5044859;28;20230;-78
2023/04/11 09:53:49;;;;;;;4.93;1.73;;;;;;;12.12;100.00;98708.00;5069613;28;20433;-78
2023/04/11 09:56:17;;;;;;;3.40;1.67;;;;;;;12.10;100.00;98707.28;5072603;28;20196;-78
2023/04/11 09:58:48;;;;;;;8.70;1.70;;;;;;;12.46;100.00;98712.38;5066827;28;20207;-78
2023/04/11 10:01:20;;;;;;;6.83;1.80;;;;;;;11.96;97.82;98713.66;5071579;28;20269;-78
2023/04/11 10:03:49;;;;;;;5.77;1.47;;;;;;;12.20;95.63;98733.00;5069639;28;20266;-78
2023/04/11 10:06:30;;;;;;;8.70;1.77;;;;;;;12.51;100.00;98712.84;5063264;28;20212;-78
2023/04/11 10:09:06;;;;;;;4.97;1.80;;;;;;;12.38;93.73;98714.81;5072639;28;20196;-78
2023/04/11 10:11:38;;;;;;;3.20;1.40;;;;;;;12.92;96.88;98726.47;5069421;28;20224;-78
2023/04/11 10:14:07;;;;;;;5.43;1.50;;;;;;;13.07;97.10;98706.63;5073880;28;20234;-78
2023/04/11 10:16:57;;;;;;;7.40;1.83;;;;;;;12.43;96.38;98728.53;5068421;28;20200;-78
2023/04/11 10:19:25;;;;;;;5.90;1.60;;;;;;;12.85;95.75;98715.50;5073190;28;20197;-78
2023/04/11 10:21:54;;;;;;;4.37;1.33;;;;;;;13.15;92.37;98725.47;5069104;28;20238;-78
2023/04/11 10:24:25;;;;;;;5.03;1.80;;;;;;;12.30;91.90;98754.38;5064495;28;20200;-78
2023/04/11 10:26:55;;;;;;;7.80;1.70;;;;;;;12.46;88.39;98736.28;5075231;28;20208;-78
2023/04/11 10:29:57;;;;;;;5.27;1.53;;;;;;;12.42;94.09;98741.94;5069899;28;20204;-78
2023/04/11 10:32:26;;;;;;;6.00;1.77;;;;;;;13.00;97.54;98738.16;5067567;28;20249;-78
2023/04/11 10:35:21;;;;;;;4.10;1.47;;;;;;;12.70;94.25;98735.31;5070760;28;20197;-78
2023/04/11 10:37:50;;;;;;;7.47;1.50;;;;;;;13.05;93.27;98733.34;5075591;28;20234;-78
2023/04/11 10:40:19;;;;;;;4.23;1.40;;;;;;;12.88;90.76;98739.16;5073504;28;20184;-78
2023/04/11 10:42:48;;;;;;;3.80;1.10;;;;;;;13.08;74.91;98730.41;5074489;28;20200;-78
2023/04/11 10:45:23;;;;;;;4.90;1.50;;;;;;;13.36;70.86;98741.50;5075911;28;20234;-78
2023/04/11 10:48:09;;;;;;;6.07;1.53;;;;;;;13.18;61.87;98739.34;5068484;28;20275;-78
2023/04/11 10:50:43;;;;;;;4.53;1.30;;;;;;;12.84;61.10;98732.41;5075794;28;20265;-77
2023/04/11 10:53:36;;;;;;;6.63;1.53;;;;;;;13.65;65.93;98734.63;5072928;28;20197;-78
2023/04/11 10:56:05;;;;;;;2.53;1.20;;;;;;;13.49;61.81;98720.03;5070692;28;20196;-78
2023/04/11 10:58:38;;;;;;;5.43;1.30;;;;;;;13.51;60.49;98726.06;5021782;28;20234;-78
2023/04/11 11:01:17;;;;;;;3.10;1.27;;;;;;;13.48;59.97;98726.34;5074922;28;20192;-78
2023/04/11 11:04:06;;;;;;;6.63;1.67;;;;;;;13.66;57.95;98733.63;5075464;28;20232;-79
2023/04/11 11:06:35;;;;;;;4.77;1.33;;;;;;;13.36;56.89;98741.50;5071365;28;20208;-78
2023/04/11 11:09:22;;;;;;;3.67;1.30;;;;;;;13.26;57.49;98745.88;5074309;28;20196;-78
2023/04/11 11:12:05;;;;;;;3.77;1.10;;;;;;;13.29;55.59;98737.66;5075384;28;20216;-78
2023/04/11 11:14:34;;;;;;;5.07;1.50;;;;;;;13.73;54.59;98734.81;5071447;28;20253;-78
2023/04/11 11:17:02;;;;;;;2.53;0.97;;;;;;;14.04;52.68;98732.22;5071466;28;20200;-79
2023/04/11 11:19:32;;;;;;;2.93;0.83;;;;;;;14.26;52.17;98732.06;5074105;28;20198;-78
2023/04/11 11:22:02;;;;;;;2.57;0.93;;;;;;;14.46;53.15;98727.72;5078848;28;20200;-78
2023/04/11 11:24:31;;;;;;;4.73;2.50;;;;;;;14.23;51.94;98737.66;5075844;28;20238;-78
2023/04/11 11:26:59;;;;;;;4.83;1.20;;;;;;;14.06;50.65;98734.75;5067306;28;20204;-78
2023/04/11 11:29:32;;;;;;;4.57;1.13;;;;;;;14.16;50.58;98723.19;5075536;28;20197;-78
2023/04/11 11:32:02;;;;;;;4.33;1.23;;;;;;;13.67;50.72;98726.50;5071235;28;20220;-79
2023/04/11 11:34:33;;;;;;;6.17;1.20;;;;;;;14.10;53.08;98722.88;5070091;28;20200;-78
2023/04/11 11:37:04;;;;;;;2.63;1.00;;;;;;;14.47;52.87;98718.75;5075180;28;20206;-78
2023/04/11 11:39:34;;;;;;;3.73;1.00;;;;;;;14.54;50.86;98722.56;5071990;28;20205;-79
2023/04/11 11:42:02;;;;;;;4.43;1.20;;;;;;;14.77;51.69;98733.91;5069077;28;20196;-79
2023/04/11 11:44:31;;;;;;;3.10;1.17;;;;;;;15.11;52.00;98737.06;5071252;28;20200;-79
2023/04/11 11:47:04;;;;;;;5.90;1.13;;;;;;;14.65;50.47;98739.44;5078272;28;20242;-79
2023/04/11 11:49:48;;;;;;;6.43;1.10;;;;;;;14.68;49.52;98733.84;5077316;28;20203;-79